createdAt,value
2019-03-15T00:01:56.856Z,15.10
2019-03-15T00:04:26.496Z,15.23
2019-03-15T00:06:56.041Z,13.13
2019-03-15T00:09:25.598Z,15.43
2019-03-15T00:11:55.395Z,16.57
2019-03-15T00:14:25.098Z,16.43
2019-03-15T00:16:54.739Z,12.77
2019-03-15T00:19:24.301Z,11.67
2019-03-15T00:21:53.889Z,13.33
2019-03-15T00:24:23.432Z,13.60
2019-03-15T00:26:52.996Z,13.50
2019-03-15T00:29:22.535Z,10.17
2019-03-15T00:31:52.080Z,14.93
2019-03-15T00:34:21.632Z,12.43
2019-03-15T00:36:51.228Z,13.83
2019-03-15T00:39:20.760Z,10.83
2019-03-15T00:41:50.308Z,11.83
2019-03-15T00:44:19.852Z,13.60
2019-03-15T00:46:49.396Z,11.60
2019-03-15T00:49:18.971Z,12.17
2019-03-15T00:51:48.505Z,10.37
2019-03-15T00:54:18.080Z,11.93
2019-03-15T00:56:47.679Z,13.90
2019-03-15T00:59:17.251Z,8.43
2019-03-15T01:01:46.796Z,11.07
2019-03-15T01:04:16.349Z,10.73
2019-03-15T01:06:45.905Z,10.30
2019-03-15T01:09:15.496Z,12.03
2019-03-15T01:11:45.678Z,9.93
2019-03-15T01:14:15.400Z,8.40
2019-03-15T01:16:44.949Z,9.37
2019-03-15T01:19:14.496Z,10.13
2019-03-15T01:21:44.195Z,12.20
2019-03-15T01:24:13.718Z,8.63
2019-03-15T01:26:43.270Z,10.97
2019-03-15T01:29:13.010Z,8.90
2019-03-15T01:31:42.664Z,10.00
2019-03-15T01:34:12.212Z,7.70
2019-03-15T01:36:41.760Z,9.43
2019-03-15T01:39:11.324Z,6.70
2019-03-15T01:41:40.908Z,9.67
2019-03-15T01:44:10.441Z,7.83
2019-03-15T01:46:40.048Z,12.97
2019-03-15T01:49:09.617Z,10.27
2019-03-15T01:51:39.152Z,10.83
2019-03-15T01:54:08.716Z,7.10
2019-03-15T01:56:38.277Z,11.33
2019-03-15T01:59:07.820Z,7.80
2019-03-15T02:01:37.355Z,11.40
2019-03-15T02:04:06.904Z,9.27
2019-03-15T02:06:36.456Z,9.03
2019-03-15T02:09:09.301Z,7.87
2019-03-15T02:11:37.956Z,8.07
2019-03-15T02:14:07.561Z,7.07
2019-03-15T02:16:37.130Z,8.67
2019-03-15T02:19:06.672Z,9.30
2019-03-15T02:21:36.196Z,9.93
2019-03-15T02:24:05.763Z,11.50
2019-03-15T02:26:35.300Z,7.83
2019-03-15T02:29:04.845Z,6.77
2019-03-15T02:31:34.384Z,8.20
2019-03-15T02:34:03.926Z,7.80
2019-03-15T02:36:33.470Z,8.90
2019-03-15T02:39:03.168Z,8.77
2019-03-15T02:41:32.724Z,11.00
2019-03-15T02:44:02.279Z,9.77
2019-03-15T02:46:31.857Z,8.13
2019-03-15T02:49:01.421Z,11.83
2019-03-15T02:51:30.955Z,8.97
2019-03-15T02:54:00.946Z,9.90
2019-03-15T02:56:30.912Z,7.83
2019-03-15T02:59:00.515Z,9.93
2019-03-15T03:01:30.168Z,8.00
2019-03-15T03:03:59.771Z,9.90
2019-03-15T03:06:29.384Z,7.03
2019-03-15T03:08:58.999Z,7.33
2019-03-15T03:11:28.621Z,5.60
2019-03-15T03:13:58.241Z,10.77
2019-03-15T03:16:27.863Z,9.43
2019-03-15T03:18:57.544Z,10.30
2019-03-15T03:21:27.186Z,9.30
2019-03-15T03:23:57.505Z,8.27
2019-03-15T03:26:27.416Z,11.70
2019-03-15T03:28:57.173Z,7.70
2019-03-15T03:31:26.819Z,10.57
2019-03-15T03:33:56.468Z,9.80
2019-03-15T03:36:26.164Z,9.47
2019-03-15T03:38:55.788Z,6.40
2019-03-15T03:41:25.479Z,10.57
2019-03-15T03:43:55.099Z,10.07
2019-03-15T03:46:24.703Z,12.50
2019-03-15T03:48:54.323Z,7.30
2019-03-15T03:51:23.999Z,9.23
2019-03-15T03:53:53.617Z,8.33
2019-03-15T03:56:23.230Z,6.57
2019-03-15T03:58:52.839Z,10.13
2019-03-15T04:01:22.439Z,6.97
2019-03-15T04:03:52.052Z,10.50
2019-03-15T04:06:21.668Z,11.50
2019-03-15T04:08:51.288Z,8.67
2019-03-15T04:11:21.242Z,10.57
2019-03-15T04:13:50.932Z,7.57
2019-03-15T04:16:20.540Z,11.13
2019-03-15T04:18:50.148Z,9.47
2019-03-15T04:21:19.836Z,12.00
2019-03-15T04:23:49.511Z,8.70
2019-03-15T04:26:19.132Z,9.93
2019-03-15T04:28:48.732Z,10.27
2019-03-15T04:31:18.343Z,6.30
2019-03-15T04:33:48.017Z,10.03
2019-03-15T04:36:17.564Z,7.93
2019-03-15T04:38:47.180Z,7.13
2019-03-15T04:41:16.803Z,7.40
2019-03-15T04:43:46.484Z,8.53
2019-03-15T04:46:16.112Z,8.30
2019-03-15T04:48:45.713Z,6.43
2019-03-15T04:51:15.399Z,5.97
2019-03-15T04:53:45.015Z,7.07
2019-03-15T04:56:14.756Z,7.47
2019-03-15T04:58:44.452Z,7.90
2019-03-15T05:01:14.080Z,9.37
2019-03-15T05:03:43.688Z,9.60
2019-03-15T05:06:13.296Z,7.77
2019-03-15T05:08:42.907Z,8.73
2019-03-15T05:11:12.507Z,7.03
2019-03-15T05:13:42.168Z,7.47
2019-03-15T05:16:11.795Z,11.37
2019-03-15T05:18:41.408Z,10.73
2019-03-15T05:21:11.027Z,9.17
2019-03-15T05:23:40.643Z,11.57
2019-03-15T05:26:10.248Z,7.47
2019-03-15T05:28:39.979Z,10.77
2019-03-15T05:31:09.602Z,13.27
2019-03-15T05:33:39.216Z,8.90
2019-03-15T05:36:08.861Z,9.57
2019-03-15T05:38:38.474Z,8.60
2019-03-15T05:41:08.097Z,9.40
2019-03-15T05:43:37.700Z,9.53
2019-03-15T05:46:07.378Z,10.13
2019-03-15T05:48:37.102Z,10.40
2019-03-15T05:51:06.735Z,12.37
2019-03-15T05:53:36.356Z,10.87
2019-03-15T05:56:05.990Z,11.73
2019-03-15T05:58:35.628Z,10.53
2019-03-15T06:01:05.312Z,9.07
2019-03-15T06:03:47.510Z,11.77
2019-03-15T06:06:06.219Z,14.10
2019-03-15T06:08:35.864Z,10.63
2019-03-15T06:11:05.524Z,11.50
2019-03-15T06:13:35.117Z,13.47
2019-03-15T06:16:04.723Z,9.17
2019-03-15T06:18:34.349Z,10.00
2019-03-15T06:21:03.949Z,11.73
2019-03-15T06:23:33.572Z,11.37
2019-03-15T06:26:03.213Z,9.93
2019-03-15T06:28:32.855Z,11.33
2019-03-15T06:31:02.461Z,12.23
2019-03-15T06:33:32.107Z,13.10
2019-03-15T06:36:01.719Z,12.37
2019-03-15T06:38:33.561Z,13.40
2019-03-15T06:41:02.666Z,11.67
2019-03-15T06:43:32.297Z,13.53
2019-03-15T06:46:01.912Z,9.83
2019-03-15T06:48:31.543Z,12.27
2019-03-15T06:51:01.163Z,15.13
2019-03-15T06:53:30.770Z,10.50
2019-03-15T06:56:00.411Z,13.20
2019-03-15T06:58:30.048Z,12.87
2019-03-15T07:00:59.684Z,12.10
2019-03-15T07:03:29.352Z,10.40
2019-03-15T07:05:58.987Z,15.07
2019-03-15T07:08:28.655Z,10.50
2019-03-15T07:10:58.326Z,11.07
2019-03-15T07:13:27.936Z,13.40
2019-03-15T07:15:57.556Z,11.33
2019-03-15T07:18:27.201Z,10.83
2019-03-15T07:20:56.839Z,11.93
2019-03-15T07:23:26.509Z,11.10
2019-03-15T07:25:56.299Z,11.53
2019-03-15T07:28:25.903Z,10.87
2019-03-15T07:30:55.577Z,10.97
2019-03-15T07:33:25.280Z,11.33
2019-03-15T07:35:54.895Z,14.90
2019-03-15T07:38:24.580Z,10.83
2019-03-15T07:40:54.203Z,10.00
2019-03-15T07:43:23.831Z,10.93
2019-03-15T07:45:53.459Z,9.27
2019-03-15T07:48:23.299Z,9.40
2019-03-15T07:50:54.355Z,9.97
2019-03-15T07:53:24.048Z,10.60
2019-03-15T07:55:53.658Z,8.20
2019-03-15T07:58:23.267Z,8.87
2019-03-15T08:00:52.902Z,11.70
2019-03-15T08:03:22.503Z,8.50
2019-03-15T08:05:52.108Z,9.17
2019-03-15T08:08:21.769Z,9.17
2019-03-15T08:10:54.743Z,9.53
2019-03-15T08:13:22.616Z,11.37
2019-03-15T08:15:52.223Z,10.97
2019-03-15T08:18:21.839Z,11.00
2019-03-15T08:20:51.488Z,16.43
2019-03-15T08:23:21.095Z,12.23
2019-03-15T08:25:50.759Z,12.40
2019-03-15T08:28:20.415Z,9.80
2019-03-15T08:30:50.020Z,13.67
2019-03-15T08:33:19.640Z,9.03
2019-03-15T08:35:49.389Z,12.57
2019-03-15T08:38:19.029Z,11.47
2019-03-15T08:40:48.660Z,8.17
2019-03-15T08:43:18.272Z,10.83
2019-03-15T08:45:47.884Z,9.07
2019-03-15T08:48:17.492Z,8.87
2019-03-15T08:50:47.088Z,9.90
2019-03-15T08:53:16.712Z,9.00
2019-03-15T08:55:46.308Z,9.20
2019-03-15T08:58:21.624Z,8.83
2019-03-15T09:00:47.197Z,8.63
2019-03-15T09:03:27.178Z,10.70
2019-03-15T09:05:48.076Z,8.63
2019-03-15T09:08:17.696Z,12.70
2019-03-15T09:10:47.320Z,9.20
2019-03-15T09:13:16.941Z,12.33
2019-03-15T09:15:46.610Z,7.87
2019-03-15T09:18:16.226Z,10.13
2019-03-15T09:20:45.871Z,10.23
2019-03-15T09:23:15.475Z,7.13
2019-03-15T09:25:45.069Z,8.37
2019-03-15T09:28:14.749Z,7.83
2019-03-15T09:30:44.431Z,7.97
2019-03-15T09:33:14.031Z,7.17
2019-03-15T09:35:43.650Z,6.37
2019-03-15T09:38:13.361Z,4.63
2019-03-15T09:40:42.968Z,5.80
2019-03-15T09:43:12.601Z,6.97
2019-03-15T09:45:42.277Z,5.47
2019-03-15T09:48:11.908Z,3.97
2019-03-15T09:50:51.279Z,5.00
2019-03-15T09:53:12.775Z,4.70
2019-03-15T09:55:42.367Z,3.37
2019-03-15T09:58:12.002Z,3.07
2019-03-15T10:00:41.688Z,4.13
2019-03-15T10:03:21.581Z,4.23
2019-03-15T10:05:42.563Z,5.63
2019-03-15T10:08:12.187Z,4.60
2019-03-15T10:10:41.820Z,5.20
2019-03-15T10:13:11.431Z,5.53
2019-03-15T10:15:41.082Z,3.67
2019-03-15T10:18:10.851Z,3.97
2019-03-15T10:20:40.524Z,3.50
2019-03-15T10:23:10.295Z,3.27
2019-03-15T10:25:46.749Z,3.20
2019-03-15T10:28:30.196Z,2.40
2019-03-15T10:30:59.795Z,3.53
2019-03-15T10:33:29.411Z,3.93
2019-03-15T10:35:59.036Z,3.50
2019-03-15T10:38:28.651Z,4.77
2019-03-15T10:41:01.137Z,3.63
2019-03-15T10:43:29.531Z,3.37
2019-03-15T10:45:59.148Z,5.73
2019-03-15T10:48:28.759Z,4.57
2019-03-15T10:50:58.443Z,6.03
2019-03-15T10:53:28.036Z,5.40
2019-03-15T10:56:00.497Z,5.20
2019-03-15T10:58:28.915Z,6.70
2019-03-15T11:00:58.536Z,6.20
2019-03-15T11:03:28.140Z,6.43
2019-03-15T11:05:57.860Z,4.57
2019-03-15T11:08:27.587Z,5.80
2019-03-15T11:10:57.184Z,6.77
2019-03-15T11:13:26.795Z,5.63
2019-03-15T11:15:56.413Z,6.97
2019-03-15T11:18:26.028Z,7.60
2019-03-15T11:20:55.637Z,6.30
2019-03-15T11:23:25.324Z,7.23
2019-03-15T11:25:54.939Z,4.70
2019-03-15T11:28:24.538Z,5.63
2019-03-15T11:30:54.272Z,6.97
2019-03-15T11:33:23.888Z,6.90
2019-03-15T11:35:53.503Z,5.93
2019-03-15T11:38:23.107Z,5.10
2019-03-15T11:40:52.740Z,4.93
2019-03-15T11:43:22.383Z,6.10
2019-03-15T11:45:52.007Z,6.13
2019-03-15T11:48:21.608Z,4.97
2019-03-15T11:50:51.239Z,5.67
2019-03-15T11:53:20.849Z,5.53
2019-03-15T11:55:50.511Z,5.00
2019-03-15T11:58:20.123Z,4.70
2019-03-15T12:00:49.727Z,4.77
2019-03-15T12:03:19.341Z,6.03
2019-03-15T12:05:48.956Z,8.67
2019-03-15T12:08:18.560Z,6.27
2019-03-15T12:10:48.256Z,6.00
2019-03-15T12:13:17.888Z,6.37
2019-03-15T12:15:47.536Z,5.47
2019-03-15T12:18:17.172Z,4.83
2019-03-15T12:20:49.253Z,6.10
2019-03-15T12:23:18.284Z,6.67
2019-03-15T12:25:47.836Z,6.60
2019-03-15T12:28:17.509Z,4.10
2019-03-15T12:30:47.228Z,9.40
2019-03-15T12:33:16.899Z,6.57
2019-03-15T12:35:46.524Z,4.07
2019-03-15T12:38:16.129Z,5.80
2019-03-15T12:40:45.756Z,4.90
2019-03-15T12:43:15.469Z,5.33
2019-03-15T12:45:45.104Z,5.40
2019-03-15T12:48:14.724Z,5.33
2019-03-15T12:50:44.312Z,7.57
2019-03-15T12:53:13.935Z,5.33
2019-03-15T12:55:43.623Z,6.77
2019-03-15T12:58:13.225Z,5.93
2019-03-15T13:00:42.848Z,6.63
2019-03-15T13:03:12.473Z,5.20
2019-03-15T13:05:42.091Z,7.80
2019-03-15T13:08:11.711Z,6.10
2019-03-15T13:10:41.379Z,5.87
2019-03-15T13:13:11.012Z,5.30
2019-03-15T13:15:40.762Z,6.33
2019-03-15T13:18:10.472Z,5.03
2019-03-15T13:20:40.191Z,6.00
2019-03-15T13:23:09.833Z,5.33
2019-03-15T13:25:39.455Z,7.23
2019-03-15T13:28:09.172Z,5.40
2019-03-15T13:30:38.785Z,5.67
2019-03-15T13:33:19.698Z,6.47
2019-03-15T13:35:39.850Z,7.43
2019-03-15T13:38:09.570Z,7.60
2019-03-15T13:40:39.224Z,6.70
2019-03-15T13:43:08.905Z,6.87
2019-03-15T13:45:38.512Z,5.77
2019-03-15T13:48:08.128Z,7.70
2019-03-15T13:50:37.776Z,5.10
2019-03-15T13:53:07.393Z,3.97
2019-03-15T13:55:36.999Z,7.77
2019-03-15T13:58:06.615Z,5.57
2019-03-15T14:00:36.380Z,6.07
2019-03-15T14:03:06.054Z,6.70
2019-03-15T14:05:35.667Z,4.67
2019-03-15T14:08:11.517Z,4.90
2019-03-15T14:10:48.739Z,4.50
2019-03-15T14:13:08.001Z,5.87
2019-03-15T14:15:37.612Z,5.00
2019-03-15T14:18:07.220Z,4.33
2019-03-15T14:20:36.848Z,5.37
2019-03-15T14:23:06.468Z,3.40
2019-03-15T14:25:36.096Z,4.30
2019-03-15T14:28:05.804Z,4.50
2019-03-15T14:30:35.453Z,4.43
2019-03-15T14:33:05.072Z,4.30
2019-03-15T14:35:34.675Z,6.03
2019-03-15T14:38:04.502Z,6.17
2019-03-15T14:40:34.189Z,5.80
2019-03-15T14:43:03.812Z,5.27
2019-03-15T14:45:33.520Z,5.03
2019-03-15T14:48:03.121Z,4.73
2019-03-15T14:50:32.768Z,5.33
2019-03-15T14:53:02.392Z,5.73
2019-03-15T14:55:32.020Z,6.00
2019-03-15T14:58:01.631Z,5.03
2019-03-15T15:00:31.267Z,5.33
2019-03-15T15:03:00.859Z,5.03
2019-03-15T15:05:30.507Z,4.93
2019-03-15T15:08:00.159Z,4.43
2019-03-15T15:10:29.771Z,5.73
2019-03-15T15:12:59.392Z,4.97
2019-03-15T15:15:29.010Z,5.57
2019-03-15T15:17:58.633Z,4.47
2019-03-15T15:20:28.299Z,7.43
2019-03-15T15:22:57.912Z,4.60
2019-03-15T15:25:27.541Z,5.17
2019-03-15T15:28:04.353Z,4.77
2019-03-15T15:30:28.441Z,4.87
2019-03-15T15:32:58.072Z,4.93
2019-03-15T15:35:27.698Z,5.63
2019-03-15T15:37:57.338Z,6.63
2019-03-15T15:40:26.969Z,5.57
2019-03-15T15:42:56.686Z,6.60
2019-03-15T15:45:29.614Z,6.13
2019-03-15T15:47:57.559Z,5.63
2019-03-15T15:50:27.185Z,6.03
2019-03-15T15:52:56.831Z,5.83
2019-03-15T15:55:26.568Z,4.87
2019-03-15T15:57:56.175Z,7.23
2019-03-15T16:00:25.804Z,9.90
2019-03-15T16:02:55.419Z,8.03
2019-03-15T16:05:25.056Z,6.10
2019-03-15T16:07:56.603Z,6.03
2019-03-15T16:10:26.032Z,7.20
2019-03-15T16:12:55.650Z,7.77
2019-03-15T16:15:25.375Z,6.30
2019-03-15T16:17:55.022Z,6.73
2019-03-15T16:20:24.740Z,7.03
2019-03-15T16:22:54.369Z,9.60
2019-03-15T16:25:24.005Z,7.37
2019-03-15T16:27:53.617Z,7.27
2019-03-15T16:30:23.234Z,6.47
2019-03-15T16:32:52.850Z,6.60
2019-03-15T16:35:22.448Z,7.53
2019-03-15T16:37:52.143Z,7.57
2019-03-15T16:40:21.751Z,9.53
2019-03-15T16:42:51.412Z,6.20
2019-03-15T16:45:21.104Z,7.07
2019-03-15T16:47:50.740Z,7.53
2019-03-15T16:50:20.351Z,6.73
2019-03-15T16:52:49.971Z,8.23
2019-03-15T16:55:19.599Z,6.07
2019-03-15T16:57:49.226Z,6.57
2019-03-15T17:00:18.935Z,5.73
2019-03-15T17:02:48.560Z,6.40
2019-03-15T17:05:18.279Z,7.57
2019-03-15T17:07:47.921Z,5.70
2019-03-15T17:10:17.656Z,6.40
2019-03-15T17:12:47.272Z,8.73
2019-03-15T17:15:16.937Z,5.37
2019-03-15T17:17:46.602Z,7.43
2019-03-15T17:20:16.298Z,8.67
2019-03-15T17:22:45.936Z,6.77
2019-03-15T17:25:15.593Z,6.57
2019-03-15T17:27:45.272Z,6.47
2019-03-15T17:30:15.108Z,6.73
2019-03-15T17:32:45.027Z,7.63
2019-03-15T17:35:14.669Z,8.50
2019-03-15T17:37:44.355Z,7.97
2019-03-15T17:40:14.070Z,8.60
2019-03-15T17:42:43.660Z,9.30
2019-03-15T17:45:13.565Z,8.57
2019-03-15T17:47:43.268Z,9.07
2019-03-15T17:50:14.330Z,7.97
2019-03-15T17:52:43.951Z,9.53
2019-03-15T17:55:14.500Z,9.30
2019-03-15T17:57:45.898Z,7.97
2019-03-15T18:00:42.684Z,12.03
2019-03-15T18:03:20.824Z,16.30
2019-03-15T18:05:44.201Z,18.80
2019-03-15T18:08:13.811Z,17.47
2019-03-15T18:10:43.432Z,13.50
2019-03-15T18:13:14.068Z,16.07
2019-03-15T18:15:43.721Z,18.23
2019-03-15T18:18:13.428Z,18.97
2019-03-15T18:20:43.041Z,19.23
2019-03-15T18:23:12.677Z,18.20
2019-03-15T18:25:42.348Z,21.23
2019-03-15T18:28:11.988Z,23.27
2019-03-15T18:30:41.617Z,25.10
2019-03-15T18:33:11.300Z,23.27
2019-03-15T18:35:40.916Z,19.40
2019-03-15T18:38:11.067Z,17.30
2019-03-15T18:40:40.692Z,18.87
2019-03-15T18:43:10.360Z,18.03
2019-03-15T18:45:39.951Z,20.50
2019-03-15T18:48:09.585Z,20.07
2019-03-15T18:50:39.271Z,20.50
2019-03-15T18:53:08.985Z,15.97
2019-03-15T18:55:38.603Z,19.37
2019-03-15T18:58:08.250Z,17.73
2019-03-15T19:00:37.972Z,14.43
2019-03-15T19:03:07.572Z,12.70
2019-03-15T19:05:37.196Z,13.17
2019-03-15T19:08:06.844Z,14.90
2019-03-15T19:10:38.683Z,16.17
2019-03-15T19:13:07.852Z,16.43
2019-03-15T19:15:37.468Z,21.17
2019-03-15T19:18:07.091Z,18.20
2019-03-15T19:20:36.798Z,18.67
2019-03-15T19:23:06.655Z,15.97
2019-03-15T19:25:36.281Z,19.77
2019-03-15T19:28:06.030Z,18.43
2019-03-15T19:30:35.673Z,17.80
2019-03-15T19:33:05.365Z,20.87
2019-03-15T19:35:34.990Z,22.23
2019-03-15T19:38:04.612Z,20.73
2019-03-15T19:40:34.240Z,19.97
2019-03-15T19:43:03.962Z,15.23
2019-03-15T19:45:33.574Z,16.40
2019-03-15T19:48:03.187Z,17.57
2019-03-15T19:50:32.886Z,18.80
2019-03-15T19:53:02.557Z,14.00
2019-03-15T19:55:32.185Z,12.83
2019-03-15T19:58:01.877Z,13.10
2019-03-15T20:00:31.481Z,14.63
2019-03-15T20:03:01.103Z,16.43
2019-03-15T20:05:30.825Z,13.40
2019-03-15T20:08:00.471Z,11.80
2019-03-15T20:10:30.064Z,10.83
2019-03-15T20:13:02.432Z,14.07
2019-03-15T20:15:30.959Z,9.20
2019-03-15T20:18:00.599Z,11.67
2019-03-15T20:20:30.204Z,11.17
2019-03-15T20:22:59.917Z,10.77
2019-03-15T20:25:29.537Z,7.97
2019-03-15T20:27:59.155Z,9.60
2019-03-15T20:30:28.844Z,8.73
2019-03-15T20:32:58.461Z,10.17
2019-03-15T20:35:28.081Z,8.93
2019-03-15T20:37:57.671Z,7.47
2019-03-15T20:40:27.280Z,8.10
2019-03-15T20:42:57.008Z,6.90
2019-03-15T20:45:26.751Z,9.53
2019-03-15T20:47:56.379Z,6.07
2019-03-15T20:50:26.001Z,8.50
2019-03-15T20:53:07.775Z,6.70
2019-03-15T20:55:28.778Z,6.10
2019-03-15T20:57:58.196Z,5.30
2019-03-15T21:00:35.397Z,4.57
2019-03-15T21:02:59.167Z,6.37
2019-03-15T21:05:28.852Z,6.07
2019-03-15T21:07:58.471Z,6.10
2019-03-15T21:10:28.072Z,5.13
2019-03-15T21:12:57.688Z,5.87
2019-03-15T21:15:27.316Z,4.70
2019-03-15T21:17:56.932Z,4.70
2019-03-15T21:20:26.555Z,4.87
2019-03-15T21:22:56.212Z,3.90
2019-03-15T21:25:25.813Z,5.60
2019-03-15T21:27:55.432Z,6.87
2019-03-15T21:30:25.097Z,6.67
2019-03-15T21:32:54.833Z,5.13
2019-03-15T21:35:24.468Z,5.87
2019-03-15T21:37:54.083Z,6.80
2019-03-15T21:40:23.702Z,5.50
2019-03-15T21:42:53.318Z,3.70
2019-03-15T21:45:23.074Z,3.93
2019-03-15T21:47:52.692Z,4.10
2019-03-15T21:50:22.337Z,4.50
2019-03-15T21:52:52.071Z,8.07
2019-03-15T21:55:21.853Z,4.93
2019-03-15T21:57:51.467Z,6.47
2019-03-15T22:00:21.189Z,5.20
2019-03-15T22:02:50.805Z,5.83
2019-03-15T22:05:20.448Z,4.93
2019-03-15T22:07:50.149Z,4.80
2019-03-15T22:10:19.748Z,5.53
2019-03-15T22:12:49.360Z,5.07
2019-03-15T22:15:19.069Z,4.67
2019-03-15T22:17:48.798Z,6.77
2019-03-15T22:20:18.609Z,4.50
2019-03-15T22:22:48.223Z,4.47
2019-03-15T22:25:17.820Z,6.93
2019-03-15T22:27:50.175Z,7.77
2019-03-15T22:30:18.707Z,5.77
2019-03-15T22:32:48.363Z,4.57
2019-03-15T22:35:17.956Z,9.00
2019-03-15T22:37:47.616Z,5.53
2019-03-15T22:40:17.234Z,5.60
2019-03-15T22:42:46.842Z,5.70
2019-03-15T22:45:16.427Z,5.20
2019-03-15T22:47:46.047Z,4.93
2019-03-15T22:50:16.003Z,5.10
2019-03-15T22:52:45.644Z,5.67
2019-03-15T22:55:15.259Z,6.47
2019-03-15T22:57:44.876Z,5.80
2019-03-15T23:00:15.063Z,7.63
2019-03-15T23:02:44.911Z,6.27
2019-03-15T23:05:15.237Z,6.63
2019-03-15T23:07:45.071Z,6.50
2019-03-15T23:10:14.707Z,7.40
2019-03-15T23:12:44.525Z,7.00
2019-03-15T23:15:14.572Z,5.37
2019-03-15T23:17:44.444Z,11.50
2019-03-15T23:20:14.471Z,8.20
2019-03-15T23:22:44.322Z,8.77
2019-03-15T23:25:13.924Z,8.13
2019-03-15T23:27:43.592Z,5.73
2019-03-15T23:30:13.212Z,8.90
2019-03-15T23:32:42.841Z,5.90
2019-03-15T23:35:12.449Z,10.03
2019-03-15T23:37:42.052Z,8.07
2019-03-15T23:40:11.913Z,8.83
2019-03-15T23:42:41.539Z,8.63
2019-03-15T23:45:11.278Z,9.10
2019-03-15T23:47:40.900Z,9.67
2019-03-15T23:50:10.671Z,12.57
2019-03-15T23:52:40.287Z,11.90
2019-03-15T23:55:10.179Z,15.53
2019-03-15T23:57:40.212Z,13.23
